Alpharetta, Georgia
Current Conditions -  °F | °C
As of 4:53 PM on Saturday 25 Oct 2014 (Local Time) from KPDK Reporting Station
Clear Clear  
Wind Chill: 74°   Ceiling: Unl
Heat Index: 74°   Visibility: 10mi
Dew Point: 45°   Wind: 10mph
Humidity: 35%   Direction: 290°WNW
Pressure: 30.01"   Gusts: NA
Location:  34.08°N, 84.29°W
Report Text: KPDK 252053Z AUTO 29009KT 10SM CLR 23/07 A3001 RMK AO2 SLP158 T02330072 55012 TSNO
Loading
Personal Weather Stations






























Interactive Weather Map
Tropical Storm Tracking
New forecast layout! Learn more

10-Day Weather Forecast

Advertisements
Track Severe Weather on mobile